Current Weather Conditions from Arkansas, Oklahoma, Missouri & Kansas

As well as selected U.S. cities associated with XNA Flights


KVBT - Bentonville Arkansas, Airport
Updated: Fri, Apr-Fri-2019 10:56am
Mostly cloudy
Mostly cloudy
 Wind from NNW
Wind: NNW 17 mph , 28 km/h, Gust: 31 mph , 50 km/h
Temperature: 52°F , 11°C
Dew Point: 37°F , 3°C
Humidity: 58%
Barometer: 30.00 inHg , 1015.9 hPa
Clouds: Mostly cloudy
Visibility: 10 miles , 16 km
Cloud details: Mostly cloudy 4200 ft
2019/04/19 15:56 KVBT 191556Z AUTO 34015G27KT 10SM BKN042 11/03 A3000 RMK AO2 PK WND 36027/1551 SLP161 T01110028
KROG - Rogers Arkansas, Airport
Updated: Fri, Apr-Fri-2019 10:58am
Mostly cloudy
Mostly cloudy
 Wind from NW
Wind: NW 22 mph , 35 km/h, Gust: 29 mph , 46 km/h
Temperature: 54°F , 12°C
Dew Point: 39°F , 4°C
Humidity: 58%
Barometer: 29.97 inHg , 1014.9 hPa
Clouds: Mostly cloudy
Visibility: 10 miles , 16 km
Cloud details: Mostly cloudy 3800 ft
Mostly cloudy 4500 ft
2019/04/19 15:58 KROG 191558Z 32019G25KT 10SM BKN038 BKN045 12/04 A2997 RMK AO2 PK WND 36027/1513 SLP148 T01220039
KXNA - Northwest Arkansas Regional Airport
Updated: Fri, Apr-Fri-2019 10:53am
Light rain, Partly cloudy
Light rain, Partly cloudy
 Wind from N
Wind: N 21 mph , 33 km/h, Gust: 35 mph , 56 km/h
Temperature: 54°F , 12°C
Dew Point: 36°F , 2°C
Humidity: 51%
Barometer: 29.99 inHg , 1015.6 hPa
Summary: Light rain
Clouds: Partly cloudy
Visibility: 10 miles , 16 km
Cloud details: Few Clouds 4200 ft
Partly cloudy 5000 ft
2019/04/19 15:53 KXNA 191553Z 36018G30KT 10SM -RA FEW042 SCT050 12/02 A2999 RMK AO2 PK WND 34030/1550 RAE1454B35 SLP153 P0000 T01170022
 
KSLG - Siloam Spring Arkansas, Airport
Updated: Fri, Apr-Fri-2019 10:56am
Mostly cloudy
Mostly cloudy
 Wind from NNW
Wind: NNW 17 mph , 28 km/h, Gust: 26 mph , 43 km/h
Temperature: 55°F , 13°C
Dew Point: 39°F , 4°C
Humidity: 55%
Barometer: 30.00 inHg , 1015.9 hPa
Clouds: Mostly cloudy
Visibility: 10 miles , 16 km
Cloud details: Mostly cloudy 3700 ft
Mostly cloudy 4800 ft
2019/04/19 15:56 KSLG 191556Z AUTO 34015G23KT 10SM BKN037 BKN048 13/04 A3000 RMK AO2 SLP160 T01280044
KASG - Springdale, Arkansas, Airport
Updated: Fri, Apr-Fri-2019 10:48am
Mostly cloudy
Mostly cloudy
 Wind from NNW
Wind: NNW 17 mph , 28 km/h, Gust: 26 mph , 43 km/h
Temperature: 52°F , 11°C
Dew Point: 37°F , 3°C
Humidity: 58%
Barometer: 29.98 inHg , 1015.2 hPa
Clouds: Mostly cloudy
Visibility: 10 miles , 16 km
Cloud details: Partly cloudy 3700 ft
Mostly cloudy 4200 ft
Mostly cloudy 4900 ft
2019/04/19 15:48 KASG 191548Z 34015G23KT 10SM SCT037 BKN042 BKN049 11/03 A2998
KFYV - Fayetteville Arkansas, Airport
Updated: Fri, Apr-Fri-2019 10:53am
Partly cloudy
Partly cloudy
 Wind from N
Wind: N 16 mph , 26 km/h, Gust: 33 mph , 54 km/h
Temperature: 55°F , 13°C
Dew Point: 37°F , 3°C
Humidity: 51%
Barometer: 29.98 inHg , 1015.2 hPa
Clouds: Partly cloudy
Visibility: 10 miles , 16 km
Cloud details: Few Clouds 4300 ft
Partly cloudy 5000 ft
2019/04/19 15:53 KFYV 191553Z 36014G29KT 10SM FEW043 SCT050 13/03 A2998 RMK AO2 PK WND 35029/1539 SLP149 T01280033
 
KHRO - Harrison, Arkansas
Updated: Fri, Apr-Fri-2019 10:53am
Overcast
Overcast
 Wind from NNW
Wind: NNW 13 mph , 20 km/h, Gust: 26 mph , 43 km/h
Temperature: 50°F , 10°C
Wind Chill: 45°F , 7°C
Dew Point: 37°F , 3°C
Humidity: 62%
Barometer: 29.91 inHg , 1012.9 hPa
Clouds: Overcast
Visibility: 10 miles , 16 km
Cloud details: Partly cloudy 3500 ft
Overcast 4500 ft
2019/04/19 15:53 KHRO 191553Z AUTO 33011G23KT 10SM SCT035 OVC045 10/03 A2991 RMK AO2 PK WND 32035/1531 SLP128 T01000028 TSNO
KFLP - Flippin, Arkansas
Updated: Fri, Apr-Fri-2019 10:56am
Overcast
Overcast
 Wind from N
Wind: N 10 mph , 17 km/h, Gust: 25 mph , 41 km/h
Temperature: 52°F , 11°C
Dew Point: 36°F , 2°C
Humidity: 54%
Barometer: 29.90 inHg , 1012.5 hPa
Clouds: Overcast
Visibility: 10 miles , 16 km
Cloud details: Mostly cloudy 4000 ft
Overcast 5000 ft
2019/04/19 15:56 KFLP 191556Z AUTO 35009G22KT 330V030 10SM BKN040 OVC050 11/02 A2990 RMK AO2 SLP126 T01060022
KBPK - Mountain Home, Arkansas
Updated: Fri, Apr-Fri-2019 10:53am
Overcast
Overcast
 Wind from N
Wind: N 9 mph , 15 km/h, Gust: 22 mph , 35 km/h
Temperature: 48°F , 9°C
Wind Chill: 44°F , 7°C
Dew Point: 34°F , 1°C
Humidity: 58%
Barometer: 29.88 inHg , 1011.9 hPa
Clouds: Overcast
Visibility: 10 miles , 16 km
Cloud details: Mostly cloudy 4300 ft
Overcast 5500 ft
2019/04/19 15:53 KBPK 191553Z AUTO 01008G19KT 340V050 10SM BKN043 OVC055 09/01 A2988 RMK AO2 PK WND 34029/1514 SLP118 T00940011 TSNO
 
KCCA - Clinton, Arkansas
Updated: Fri, Apr-Fri-2019 11:15am
Overcast
Overcast
 Wind from varies
Wind: varies 7 mph , 11 km/h, Gust: 17 mph , 28 km/h
Temperature: 52°F , 11°C
Dew Point: 39°F , 4°C
Humidity: 62%
Barometer: 29.89 inHg , 1012.2 hPa
Clouds: Overcast
Visibility: 10 miles , 16 km
Cloud details: Partly cloudy 4700 ft
Mostly cloudy 5500 ft
Overcast 6500 ft
2019/04/19 16:15 KCCA 191615Z AUTO VRB06G15KT 10SM SCT047 BKN055 OVC065 11/04 A2989 RMK AO2
KRUE - Russellville, Arkansas
Updated: Fri, Apr-Fri-2019 10:53am
Overcast
Overcast
 Wind from NW
Wind: NW 15 mph , 24 km/h, Gust: 25 mph , 41 km/h
Temperature: 55°F , 13°C
Dew Point: 37°F , 3°C
Humidity: 51%
Barometer: 29.90 inHg , 1012.5 hPa
Clouds: Overcast
Visibility: 10 miles , 16 km
Cloud details: Partly cloudy 4600 ft
Overcast 6000 ft
2019/04/19 15:53 KRUE 191553Z AUTO 32013G22KT 10SM SCT046 OVC060 13/03 A2990 RMK AO2 SLP123 T01280033
KBVX - Batesville, Arkansa
Updated: Fri, Apr-Fri-2019 10:56am
Overcast
Overcast
 Wind from NNW
Wind: NNW 9 mph , 15 km/h, Gust: 22 mph , 35 km/h
Temperature: 50°F , 10°C
Wind Chill: 46°F , 8°C
Dew Point: 37°F , 3°C
Humidity: 62%
Barometer: 29.85 inHg , 1010.8 hPa
Clouds: Overcast
Visibility: 10 miles , 16 km
Cloud details: Mostly cloudy 4100 ft
Overcast 5000 ft
2019/04/19 15:56 KBVX 191556Z AUTO 33008G19KT 10SM BKN041 OVC050 10/03 A2985 RMK AO2 SLP109 T01000033
 
KBYH - Blytheville, Arkansas
Updated: Thu, Apr-Thu-2019 1:59pm
NOT Current
Light rain, Overcast
Light rain, Overcast
 Wind from SW
Wind: SW 6 mph , 9 km/h
Temperature: 64°F , 18°C
Dew Point: 63°F , 17°C
Humidity: 94%
Barometer: 29.71 inHg , 1006.1 hPa
Summary: Light rain
Clouds: Overcast
Visibility: 8 miles , 13 km
Cloud details: Partly cloudy 700 ft
Mostly cloudy 1600 ft
Overcast 9000 ft
2019/04/18 18:59 KBYH 181859Z 22005KT 8SM -RA SCT007 BKN016 OVC090 18/17 A2971
KM19 - Newport, Arkansas
Updated: Fri, Apr-Fri-2019 10:56am
Overcast
Overcast
 Wind from N
Wind: N 20 mph , 31 km/h
Temperature: 50°F , 10°C
Wind Chill: 44°F , 7°C
Dew Point: 39°F , 4°C
Humidity: 67%
Barometer: 29.82 inHg , 1009.8 hPa
Clouds: Overcast
Visibility: 10 miles , 16 km
Cloud details: Few Clouds 3300 ft
Mostly cloudy 4500 ft
Overcast 5500 ft
2019/04/19 15:56 KM19 191556Z AUTO 35017KT 10SM FEW033 BKN045 OVC055 10/04 A2982 RMK AO2 RAE14 SLP106 P0000 T01000044
KSRC - Searcy, Arkansas
Updated: Fri, Apr-Fri-2019 10:56am
Overcast
Overcast
 Wind from NNW
Wind: NNW 9 mph , 15 km/h, Gust: 20 mph , 31 km/h
Temperature: 52°F , 11°C
Dew Point: 41°F , 5°C
Humidity: 67%
Barometer: 29.86 inHg , 1011.2 hPa
Clouds: Overcast
Visibility: 10 miles , 16 km
Cloud details: Mostly cloudy 3800 ft
Mostly cloudy 4800 ft
Overcast 6000 ft
2019/04/19 15:56 KSRC 191556Z AUTO 33008G17KT 10SM BKN038 BKN048 OVC060 11/05 A2986 RMK AO2 SLP123 T01110050
 
KARG - Walnut Ridge, Arkansas
Updated: Fri, Apr-Fri-2019 10:56am
Overcast
Overcast
 Wind from NW
Wind: NW 17 mph , 28 km/h
Temperature: 48°F , 9°C
Wind Chill: 42°F , 6°C
Dew Point: 41°F , 5°C
Humidity: 76%
Barometer: 29.81 inHg , 1009.5 hPa
Clouds: Overcast
Visibility: 10 miles , 16 km
Cloud details: Mostly cloudy 3300 ft
Overcast 4000 ft
2019/04/19 15:56 KARG 191556Z AUTO 32015KT 10SM BKN033 OVC040 09/05 A2981 RMK AO2 SLP097 T00940050
KJBR - Jonesboro, Arkansas
Updated: Fri, Apr-Fri-2019 10:53am
Light rain, Overcast
Light rain, Overcast
 Wind from NW
Wind: NW 16 mph , 26 km/h, Gust: 25 mph , 41 km/h
Temperature: 50°F , 10°C
Wind Chill: 44°F , 7°C
Dew Point: 43°F , 6°C
Humidity: 76%
Barometer: 29.79 inHg , 1008.8 hPa
Summary: Light rain
Clouds: Overcast
Visibility: 10 miles , 16 km
Cloud details: Partly cloudy 2800 ft
Mostly cloudy 3600 ft
Overcast 12000 ft
2019/04/19 15:53 KJBR 191553Z AUTO 32014G22KT 10SM -RA SCT028 BKN036 OVC120 10/06 A2979 RMK AO2 RAB51 SLP089 P0000 T01000056 $
K4M9 - Corning, Arkansas
Updated: Fri, Apr-Fri-2019 11:15am
Mostly cloudy
Mostly cloudy
 Wind from NNW
Wind: NNW 18 mph , 30 km/h
Barometer: 29.80 inHg , 1009.1 hPa
Clouds: Mostly cloudy
Visibility: 10 miles , 16 km
Cloud details: Mostly cloudy 3500 ft
Mostly cloudy 4200 ft
Mostly cloudy 4900 ft
2019/04/19 16:15 K4M9 191615Z AUTO 33016KT 10SM BKN035 BKN042 BKN049 A2980 RMK AO2 PWINO
 
KLRF - Little Rock Afb, Arkansas
Updated: Fri, Apr-Fri-2019 10:56am
Overcast
Overcast
 Wind from NW
Wind: NW 14 mph , 22 km/h, Gust: 22 mph , 35 km/h
Temperature: 54°F , 12°C
Dew Point: 41°F , 5°C
Humidity: 63%
Barometer: 29.86 inHg , 1011.2 hPa
Clouds: Overcast
Visibility: 10 miles , 16 km
Cloud details: Partly cloudy 3600 ft
Partly cloudy 4400 ft
Overcast 6000 ft
2019/04/19 15:56 KLRF 191556Z AUTO 31012G19KT 10SM SCT036 SCT044 OVC060 12/05 A2986 RMK AO2 SLP114 T01200049 RVRNO $
KLIT - Little Rock, Arkansas
Updated: Fri, Apr-Fri-2019 10:53am
Overcast
Overcast
 Wind from NNW
Wind: NNW 15 mph , 24 km/h, Gust: 25 mph , 41 km/h
Temperature: 55°F , 13°C
Dew Point: 43°F , 6°C
Humidity: 63%
Barometer: 29.88 inHg , 1011.9 hPa
Clouds: Overcast
Visibility: 10 miles , 16 km
Cloud details: Partly cloudy 3000 ft
Overcast 4000 ft
2019/04/19 15:53 KLIT 191553Z 34013G22KT 10SM SCT030 OVC040 13/06 A2988 RMK AO2 PK WND 33028/1513 SLP119 BINOVC T01280056 $
KSGT - Stuttgart, Arkansas
Updated: Fri, Apr-Fri-2019 10:56am
Overcast
Overcast
 Wind from NW
Wind: NW 21 mph , 33 km/h, Gust: 28 mph , 44 km/h
Temperature: 54°F , 12°C
Dew Point: 45°F , 7°C
Humidity: 72%
Barometer: 29.84 inHg , 1010.5 hPa
Clouds: Overcast
Visibility: 10 miles , 16 km
Cloud details: Few Clouds 3000 ft
Partly cloudy 5000 ft
Overcast 6000 ft
2019/04/19 15:56 KSGT 191556Z AUTO 32018G24KT 10SM FEW030 SCT050 OVC060 12/07 A2984 RMK AO2 PK WND 32026/1507 SLP107 T01170067
 
KAWM - West Memphis, Arkansas
Updated: Fri, Apr-Fri-2019 10:53am
Overcast
Overcast
 Wind from N
Wind: N 14 mph , 22 km/h, Gust: 23 mph , 37 km/h
Temperature: 52°F , 11°C
Dew Point: 43°F , 6°C
Humidity: 72%
Barometer: 29.77 inHg , 1008.1 hPa
Clouds: Overcast
Visibility: 10 miles , 16 km
Cloud details: Mostly cloudy 4000 ft
Overcast 4600 ft
2019/04/19 15:53 KAWM 191553Z AUTO 35012G20KT 10SM BKN040 OVC046 11/06 A2977 RMK AO2 SLP081 T01060061 $
KFSM - Fort Smith, Arkansas
Updated: Fri, Apr-Fri-2019 10:53am
Mostly cloudy
Mostly cloudy
 Wind from NNW
Wind: NNW 21 mph , 33 km/h, Gust: 26 mph , 43 km/h
Temperature: 61°F , 16°C
Dew Point: 37°F , 3°C
Humidity: 42%
Barometer: 29.98 inHg , 1015.2 hPa
Clouds: Mostly cloudy
Visibility: 10 miles , 16 km
Cloud details: Mostly cloudy 5500 ft
2019/04/19 15:53 KFSM 191553Z 33018G23KT 10SM BKN055 16/03 A2998 RMK AO2 SLP150 T01560033
KMWT - Mount Ida, Arkansas
Updated: Fri, Apr-Fri-2019 10:53am
Mostly cloudy
Mostly cloudy
 Wind from NNW
Wind: NNW 14 mph , 22 km/h, Gust: 26 mph , 43 km/h
Temperature: 55°F , 13°C
Dew Point: 39°F , 4°C
Humidity: 55%
Barometer: 29.91 inHg , 1012.9 hPa
Clouds: Mostly cloudy
Visibility: 10 miles , 16 km
Cloud details: Mostly cloudy 4700 ft
Mostly cloudy 5500 ft
2019/04/19 15:53 KMWT 191553Z AUTO 33012G23KT 290V020 10SM BKN047 BKN055 13/04 A2991 RMK AO2 SLP129 T01330039
 
KMEZ - Mena, Arkansas
Updated: Fri, Apr-Fri-2019 11:15am
Mostly cloudy
Mostly cloudy
 Wind from NNW
Wind: NNW 16 mph , 26 km/h, Gust: 21 mph , 33 km/h
Temperature: 57°F , 14°C
Dew Point: 39°F , 4°C
Humidity: 51%
Barometer: 29.98 inHg , 1015.2 hPa
Clouds: Mostly cloudy
Visibility: 10 miles , 16 km
Cloud details: Partly cloudy 4400 ft
Partly cloudy 5000 ft
Mostly cloudy 6000 ft
2019/04/19 16:15 KMEZ 191615Z AUTO 34014G18KT 314V024 10SM SCT044 SCT050 BKN060 14/04 A2998 RMK AO2
KHOT - Hot Springs, Arkansas
Updated: Fri, Apr-Fri-2019 10:53am
Mostly cloudy
Mostly cloudy
 Wind from NNW
Wind: NNW 15 mph , 24 km/h, Gust: 26 mph , 43 km/h
Temperature: 55°F , 13°C
Dew Point: 39°F , 4°C
Humidity: 55%
Barometer: 29.92 inHg , 1013.2 hPa
Clouds: Mostly cloudy
Visibility: 10 miles , 16 km
Cloud details: Mostly cloudy 4800 ft
2019/04/19 15:53 KHOT 191553Z AUTO 33013G23KT 10SM BKN048 13/04 A2992 RMK AO2 SLP130 T01280039
KADF - Arkadelphia, Arkansas
Updated: Fri, Apr-Fri-2019 10:56am
Overcast
Overcast
 Wind from NNW
Wind: NNW 17 mph , 28 km/h, Gust: 25 mph , 41 km/h
Temperature: 55°F , 13°C
Dew Point: 41°F , 5°C
Humidity: 59%
Barometer: 29.93 inHg , 1013.5 hPa
Clouds: Overcast
Visibility: 10 miles , 16 km
Cloud details: Mostly cloudy 4700 ft
Overcast 5500 ft
2019/04/19 15:56 KADF 191556Z AUTO 33015G22KT 10SM BKN047 OVC055 13/05 A2993 RMK AO2 SLP140 T01330050
 
KSGT - Stuttgart, Arkansas
Updated: Fri, Apr-Fri-2019 10:56am
Overcast
Overcast
 Wind from NW
Wind: NW 21 mph , 33 km/h, Gust: 28 mph , 44 km/h
Temperature: 54°F , 12°C
Dew Point: 45°F , 7°C
Humidity: 72%
Barometer: 29.84 inHg , 1010.5 hPa
Clouds: Overcast
Visibility: 10 miles , 16 km
Cloud details: Few Clouds 3000 ft
Partly cloudy 5000 ft
Overcast 6000 ft
2019/04/19 15:56 KSGT 191556Z AUTO 32018G24KT 10SM FEW030 SCT050 OVC060 12/07 A2984 RMK AO2 PK WND 32026/1507 SLP107 T01170067
KPBF - Pine Bluff, Arkansas
Updated: Fri, Apr-Fri-2019 10:53am
Overcast
Overcast
 Wind from NNW
Wind: NNW 16 mph , 26 km/h, Gust: 33 mph , 54 km/h
Temperature: 55°F , 13°C
Dew Point: 41°F , 5°C
Humidity: 59%
Barometer: 29.86 inHg , 1011.2 hPa
Clouds: Overcast
Visibility: 10 miles , 16 km
Cloud details: Few Clouds 3800 ft
Partly cloudy 4900 ft
Overcast 6500 ft
2019/04/19 15:53 KPBF 191553Z AUTO 33014G29KT 10SM FEW038 SCT049 OVC065 13/05 A2986 RMK AO2 PK WND 32029/1545 SLP111 T01330050 $
KSRC - Searcy, Arkansas
Updated: Fri, Apr-Fri-2019 10:56am
Overcast
Overcast
 Wind from NNW
Wind: NNW 9 mph , 15 km/h, Gust: 20 mph , 31 km/h
Temperature: 52°F , 11°C
Dew Point: 41°F , 5°C
Humidity: 67%
Barometer: 29.86 inHg , 1011.2 hPa
Clouds: Overcast
Visibility: 10 miles , 16 km
Cloud details: Mostly cloudy 3800 ft
Mostly cloudy 4800 ft
Overcast 6000 ft
2019/04/19 15:56 KSRC 191556Z AUTO 33008G17KT 10SM BKN038 BKN048 OVC060 11/05 A2986 RMK AO2 SLP123 T01110050
 
KRUE - Russellville, Arkansas
Updated: Fri, Apr-Fri-2019 10:53am
Overcast
Overcast
 Wind from NW
Wind: NW 15 mph , 24 km/h, Gust: 25 mph , 41 km/h
Temperature: 55°F , 13°C
Dew Point: 37°F , 3°C
Humidity: 51%
Barometer: 29.90 inHg , 1012.5 hPa
Clouds: Overcast
Visibility: 10 miles , 16 km
Cloud details: Partly cloudy 4600 ft
Overcast 6000 ft
2019/04/19 15:53 KRUE 191553Z AUTO 32013G22KT 10SM SCT046 OVC060 13/03 A2990 RMK AO2 SLP123 T01280033
KCCA - Clinton, Arkansas
Updated: Fri, Apr-Fri-2019 11:15am
Overcast
Overcast
 Wind from varies
Wind: varies 7 mph , 11 km/h, Gust: 17 mph , 28 km/h
Temperature: 52°F , 11°C
Dew Point: 39°F , 4°C
Humidity: 62%
Barometer: 29.89 inHg , 1012.2 hPa
Clouds: Overcast
Visibility: 10 miles , 16 km
Cloud details: Partly cloudy 4700 ft
Mostly cloudy 5500 ft
Overcast 6500 ft
2019/04/19 16:15 KCCA 191615Z AUTO VRB06G15KT 10SM SCT047 BKN055 OVC065 11/04 A2989 RMK AO2
KLLQ - Monticello, Arkansas
Updated: Fri, Apr-Fri-2019 10:53am
Overcast
Overcast
 Wind from NW
Wind: NW 9 mph , 15 km/h
Temperature: 57°F , 14°C
Dew Point: 43°F , 6°C
Humidity: 59%
Barometer: 29.85 inHg , 1010.8 hPa
Clouds: Overcast
Visibility: 10 miles , 16 km
Cloud details: Few Clouds 3600 ft
Overcast 6500 ft
2019/04/19 15:53 KLLQ 191553Z AUTO 32008KT 10SM FEW036 OVC065 14/06 A2985 RMK AO2 SLP108 T01390061
 
KCDH - Camden, Arkansas
Updated: Fri, Apr-Fri-2019 11:15am
Mostly cloudy
Mostly cloudy
 Wind from WNW
Wind: WNW 16 mph , 26 km/h
Temperature: 59°F , 15°C
Dew Point: 41°F , 5°C
Humidity: 51%
Barometer: 29.91 inHg , 1012.9 hPa
Clouds: Mostly cloudy
Visibility: 10 miles , 16 km
Cloud details: Partly cloudy 3900 ft
Mostly cloudy 6000 ft
Mostly cloudy 7000 ft
2019/04/19 16:15 KCDH 191615Z AUTO 30014KT 10SM SCT039 BKN060 BKN070 15/05 A2991 RMK AO2
KM19 - Newport, Arkansas
Updated: Fri, Apr-Fri-2019 10:56am
Overcast
Overcast
 Wind from N
Wind: N 20 mph , 31 km/h
Temperature: 50°F , 10°C
Wind Chill: 44°F , 7°C
Dew Point: 39°F , 4°C
Humidity: 67%
Barometer: 29.82 inHg , 1009.8 hPa
Clouds: Overcast
Visibility: 10 miles , 16 km
Cloud details: Few Clouds 3300 ft
Mostly cloudy 4500 ft
Overcast 5500 ft
2019/04/19 15:56 KM19 191556Z AUTO 35017KT 10SM FEW033 BKN045 OVC055 10/04 A2982 RMK AO2 RAE14 SLP106 P0000 T01000044
KDEQ - De Queen, Arkansas
Updated: Fri, Apr-Fri-2019 10:53am
Mostly cloudy
Mostly cloudy
 Wind from NNW
Wind: NNW 9 mph , 15 km/h, Gust: 23 mph , 37 km/h
Temperature: 59°F , 15°C
Dew Point: 41°F , 5°C
Humidity: 51%
Barometer: 29.97 inHg , 1014.9 hPa
Clouds: Mostly cloudy
Visibility: 10 miles , 16 km
Cloud details: Mostly cloudy 4900 ft
2019/04/19 15:53 KDEQ 191553Z AUTO 34008G20KT 10SM BKN049 15/05 A2997 RMK AO2 SLP146 T01500050
 
KTXK - Texarkana, Arkansas
Updated: Fri, Apr-Fri-2019 10:53am
Overcast
Overcast
 Wind from NW
Wind: NW 14 mph , 22 km/h
Temperature: 55°F , 13°C
Dew Point: 45°F , 7°C
Humidity: 67%
Barometer: 29.96 inHg , 1014.6 hPa
Clouds: Overcast
Visibility: 10 miles , 16 km
Cloud details: Mostly cloudy 4000 ft
Mostly cloudy 4700 ft
Overcast 6000 ft
2019/04/19 15:53 KTXK 191553Z 32012KT 10SM BKN040 BKN047 OVC060 13/07 A2996 RMK AO2 SLP144 T01330072
KELD - El Dorado, Arkansas
Updated: Fri, Apr-Fri-2019 10:53am
Partly cloudy
Partly cloudy
 Wind from WNW
Wind: WNW 14 mph , 22 km/h, Gust: 24 mph , 39 km/h
Temperature: 57°F , 14°C
Dew Point: 46°F , 8°C
Humidity: 67%
Barometer: 29.91 inHg , 1012.9 hPa
Clouds: Partly cloudy
Visibility: 10 miles , 16 km
Cloud details: Partly cloudy 4100 ft
Partly cloudy 5000 ft
2019/04/19 15:53 KELD 191553Z AUTO 30012G21KT 10SM SCT041 SCT050 14/08 A2991 RMK AO2 SLP127 T01440078
KCSM - Clinton, Oklahoma
Updated: Fri, Apr-Fri-2019 10:53am
Clear
Clear
 Wind from NNW
Wind: NNW 16 mph , 26 km/h, Gust: 22 mph , 35 km/h
Temperature: 54°F , 12°C
Dew Point: 36°F , 2°C
Humidity: 51%
Barometer: 30.20 inHg , 1022.7 hPa
Clouds: Clear
Visibility: 10 miles , 16 km
2019/04/19 15:53 KCSM 191553Z 34014G19KT 10SM CLR 12/02 A3020 RMK AO2 SLP224 T01220017
 
KHBR - Hobart, Oklahoma
Updated: Fri, Apr-Fri-2019 10:53am
Clear
Clear
 Wind from N
Wind: N 17 mph , 28 km/h, Gust: 24 mph , 39 km/h
Temperature: 59°F , 15°C
Dew Point: 36°F , 2°C
Humidity: 42%
Barometer: 30.20 inHg , 1022.7 hPa
Clouds: Clear
Visibility: 10 miles , 16 km
2019/04/19 15:53 KHBR 191553Z AUTO 35015G21KT 10SM CLR 15/02 A3020 RMK AO2 SLP224 T01500017
KLTS - Altus Afb, Oklahoma
Updated: Fri, Apr-Fri-2019 10:56am
Clear
Clear
 Wind from NNW
Wind: NNW 16 mph , 26 km/h, Gust: 21 mph , 33 km/h
Temperature: 59°F , 15°C
Dew Point: 32°F , 0°C
Humidity: 36%
Barometer: 30.20 inHg , 1022.7 hPa
Clouds: Clear
Visibility: 10 miles , 16 km
2019/04/19 15:56 KLTS 191556Z AUTO 34014G18KT 10SM CLR 15/00 A3020 RMK AO2 SLP223 T01511003 $
KFSI - Fort Sill, Oklahoma
Updated: Fri, Apr-Fri-2019 11:06am
Clear
Clear
 Wind from NNW
Wind: NNW 15 mph , 24 km/h, Gust: 26 mph , 43 km/h
Temperature: 59°F , 15°C
Dew Point: 41°F , 5°C
Humidity: 51%
Barometer: 30.17 inHg , 1021.7 hPa
Clouds: Clear
Visibility: 10 miles , 16 km
2019/04/19 16:06 KFSI 191606Z AUTO 33013G23KT 10SM CLR 15/05 A3017 RMK AO2 WSHFT 01 SLP214
 
KGAG - Gage, Oklahoma
Updated: Fri, Apr-Fri-2019 10:53am
Clear
Clear
 Wind from NNW
Wind: NNW 14 mph , 22 km/h
Temperature: 57°F , 14°C
Dew Point: 36°F , 2°C
Humidity: 44%
Barometer: 30.20 inHg , 1022.7 hPa
Clouds: Clear
Visibility: 10 miles , 16 km
2019/04/19 15:53 KGAG 191553Z AUTO 33012KT 10SM CLR 14/02 A3020 RMK AO2 SLP220 T01390017
KWWR - Woodward, Oklahoma
Updated: Fri, Apr-Fri-2019 10:55am
Clear
Clear
 Wind from WNW
Wind: WNW 10 mph , 17 km/h, Gust: 21 mph , 33 km/h
Temperature: 54°F , 12°C
Dew Point: 30°F , -1°C
Humidity: 41%
Barometer: 30.22 inHg , 1023.4 hPa
Clouds: Clear
Visibility: 10 miles , 16 km
2019/04/19 15:55 KWWR 191555Z AUTO 30009G18KT 10SM CLR 12/M01 A3022 RMK AO2
KLAW - Lawton, Oklahoma
Updated: Fri, Apr-Fri-2019 10:53am
Clear
Clear
 Wind from NNW
Wind: NNW 18 mph , 30 km/h
Temperature: 59°F , 15°C
Dew Point: 36°F , 2°C
Humidity: 42%
Barometer: 30.18 inHg , 1022 hPa
Clouds: Clear
Visibility: 10 miles , 16 km
2019/04/19 15:53 KLAW 191553Z 34016KT 10SM CLR 15/02 A3018 RMK AO2 PK WND 36026/1522 SLP218 T01500022
 
KOKC - Oklahoma City, Oklahoma
Updated: Fri, Apr-Fri-2019 10:52am
Few Clouds
Few Clouds
 Wind from N
Wind: N 15 mph , 24 km/h, Gust: 30 mph , 48 km/h
Temperature: 55°F , 13°C
Dew Point: 39°F , 4°C
Humidity: 55%
Barometer: 30.14 inHg , 1020.7 hPa
Clouds: Few Clouds
Visibility: 10 miles , 16 km
Cloud details: Few Clouds 4000 ft
2019/04/19 15:52 KOKC 191552Z 36013G26KT 10SM FEW040 13/04 A3014 RMK AO2 PK WND 34026/1543 SLP205 T01280039
KEND - Enid/Vance Afb, Oklahoma
Updated: Fri, Apr-Fri-2019 10:56am
Clear
Clear
 Wind from NNW
Wind: NNW 20 mph , 31 km/h, Gust: 24 mph , 39 km/h
Temperature: 57°F , 14°C
Dew Point: 41°F , 5°C
Humidity: 55%
Barometer: 30.14 inHg , 1020.7 hPa
Clouds: Clear
Visibility: 10 miles , 16 km
2019/04/19 15:56 KEND 191556Z AUTO 33017G21KT 10SM CLR 14/05 A3014 RMK AO2 SLP208 T01370046 $
KFDR - Frederick/Altus, Oklahoma
Updated: Fri, Apr-Fri-2019 10:53am
Clear
Clear
 Wind from N
Wind: N 21 mph , 33 km/h
Temperature: 57°F , 14°C
Dew Point: 37°F , 3°C
Humidity: 48%
Barometer: 30.17 inHg , 1021.7 hPa
Clouds: Clear
Visibility: 10 miles , 16 km
2019/04/19 15:53 KFDR 191553Z AUTO 36018KT 10SM CLR 14/03 A3017 RMK AO2 SLP211 T01440033
 
KOUN - Norman, Oklahoma
Updated: Fri, Apr-Fri-2019 10:45am
Partly cloudy
Partly cloudy
 Wind from NW
Wind: NW 20 mph , 31 km/h, Gust: 24 mph , 39 km/h
Temperature: 55°F , 13°C
Dew Point: 39°F , 4°C
Humidity: 55%
Barometer: 30.12 inHg , 1020 hPa
Clouds: Partly cloudy
Visibility: 10 miles , 16 km
Cloud details: Partly cloudy 3900 ft
2019/04/19 15:45 KOUN 191545Z 32017G21KT 10SM SCT039 13/04 A3012
KTIK - Tinker Afb, Oklahoma
Updated: Fri, Apr-Fri-2019 10:56am
Few Clouds
Few Clouds
 Wind from N
Wind: N 20 mph , 31 km/h, Gust: 26 mph , 43 km/h
Temperature: 55°F , 13°C
Dew Point: 39°F , 4°C
Humidity: 55%
Barometer: 30.13 inHg , 1020.3 hPa
Clouds: Few Clouds
Visibility: 10 miles , 16 km
Cloud details: Few Clouds 3700 ft
2019/04/19 15:56 KTIK 191556Z AUTO 36017G23KT 10SM FEW037 13/04 A3013 RMK AO2 SLP209 T01340035
KGOK - Guthrie, Oklahoma
Updated: Fri, Apr-Fri-2019 10:53am
Clear
Clear
 Wind from NNW
Wind: NNW 13 mph , 20 km/h, Gust: 20 mph , 31 km/h
Temperature: 57°F , 14°C
Dew Point: 39°F , 4°C
Humidity: 51%
Barometer: 30.14 inHg , 1020.7 hPa
Clouds: Clear
Visibility: 10 miles , 16 km
2019/04/19 15:53 KGOK 191553Z AUTO 34011G17KT 310V020 10SM CLR 14/04 A3014 RMK AO2 SLP207 T01390044
 
KSNL - Shawnee, Oklahoma
Updated: Fri, Apr-Fri-2019 10:55am
Clear
Clear
 Wind from N
Wind: N 14 mph , 22 km/h, Gust: 24 mph , 39 km/h
Temperature: 55°F , 13°C
Dew Point: 39°F , 4°C
Humidity: 55%
Barometer: 30.11 inHg , 1019.6 hPa
Clouds: Clear
Visibility: 10 miles , 16 km
2019/04/19 15:55 KSNL 191555Z AUTO 35012G21KT 10SM CLR 13/04 A3011 RMK AO2 T01300039
KCQB - Chandler, Oklahoma
Updated: Fri, Apr-Fri-2019 11:15am
Mostly cloudy
Mostly cloudy
 Wind from NNW
Wind: NNW 20 mph , 31 km/h, Gust: 24 mph , 39 km/h
Temperature: 59°F , 15°C
Dew Point: 41°F , 5°C
Humidity: 51%
Barometer: 30.11 inHg , 1019.6 hPa
Clouds: Mostly cloudy
Visibility: 10 miles , 16 km
Cloud details: Mostly cloudy 4300 ft
Mostly cloudy 4800 ft
2019/04/19 16:15 KCQB 191615Z AUTO 34017G21KT 10SM BKN043 BKN048 15/05 A3011 RMK AO2 T01490049
KPVJ - Pauls Valley, Oklahoma
Updated: Fri, Apr-Fri-2019 11:15am
Mostly cloudy
Mostly cloudy
 Wind from NNW
Wind: NNW 15 mph , 24 km/h, Gust: 20 mph , 31 km/h
Temperature: 55°F , 13°C
Dew Point: 39°F , 4°C
Humidity: 55%
Barometer: 30.13 inHg , 1020.3 hPa
Clouds: Mostly cloudy
Visibility: 10 miles , 16 km
Cloud details: Partly cloudy 4100 ft
Mostly cloudy 4800 ft
Mostly cloudy 6000 ft
2019/04/19 16:15 KPVJ 191615Z AUTO 34013G17KT 10SM SCT041 BKN048 BKN060 13/04 A3013 RMK AO2 T01280041
 
KEND - Enid/Vance Afb, Oklahoma
Updated: Fri, Apr-Fri-2019 10:56am
Clear
Clear
 Wind from NNW
Wind: NNW 20 mph , 31 km/h, Gust: 24 mph , 39 km/h
Temperature: 57°F , 14°C
Dew Point: 41°F , 5°C
Humidity: 55%
Barometer: 30.14 inHg , 1020.7 hPa
Clouds: Clear
Visibility: 10 miles , 16 km
2019/04/19 15:56 KEND 191556Z AUTO 33017G21KT 10SM CLR 14/05 A3014 RMK AO2 SLP208 T01370046 $
KSWO - Stillwater, Oklahoma
Updated: Fri, Apr-Fri-2019 10:53am
Clear
Clear
 Wind from NNW
Wind: NNW 18 mph , 30 km/h, Gust: 25 mph , 41 km/h
Temperature: 61°F , 16°C
Dew Point: 39°F , 4°C
Humidity: 45%
Barometer: 30.12 inHg , 1020 hPa
Clouds: Clear
Visibility: 10 miles , 16 km
2019/04/19 15:53 KSWO 191553Z 33016G22KT 10SM CLR 16/04 A3012 RMK AO2 SLP197 T01560044
KFSI - Fort Sill, Oklahoma
Updated: Fri, Apr-Fri-2019 11:06am
Clear
Clear
 Wind from NNW
Wind: NNW 15 mph , 24 km/h, Gust: 26 mph , 43 km/h
Temperature: 59°F , 15°C
Dew Point: 41°F , 5°C
Humidity: 51%
Barometer: 30.17 inHg , 1021.7 hPa
Clouds: Clear
Visibility: 10 miles , 16 km
2019/04/19 16:06 KFSI 191606Z AUTO 33013G23KT 10SM CLR 15/05 A3017 RMK AO2 WSHFT 01 SLP214
 
KDUC - Duncan, Oklahoma
Updated: Fri, Apr-Fri-2019 11:15am
Partly cloudy
Partly cloudy
 Wind from N
Wind: N 18 mph , 30 km/h, Gust: 25 mph , 41 km/h
Temperature: 57°F , 14°C
Dew Point: 39°F , 4°C
Humidity: 51%
Barometer: 30.18 inHg , 1022 hPa
Clouds: Partly cloudy
Visibility: 10 miles , 16 km
Cloud details: Partly cloudy 4600 ft
2019/04/19 16:15 KDUC 191615Z AUTO 35016G22KT 10SM SCT046 14/04 A3018 RMK AO2 T014400
KOKM - Okmulgee, Oklahoma
Updated: Fri, Apr-Fri-2019 10:55am
Partly cloudy
Partly cloudy
 Wind from N
Wind: N 16 mph , 26 km/h, Gust: 29 mph , 46 km/h
Temperature: 59°F , 15°C
Dew Point: 39°F , 4°C
Humidity: 48%
Barometer: 30.07 inHg , 1018.3 hPa
Clouds: Partly cloudy
Visibility: 10 miles , 16 km
Cloud details: Partly cloudy 4300 ft
Partly cloudy 5000 ft
2019/04/19 15:55 KOKM 191555Z AUTO 36014G25KT 10SM SCT043 SCT050 15/04 A3007 RMK AO2 T01490040
KMLC - Mcalester, Oklahoma
Updated: Fri, Apr-Fri-2019 10:53am
Partly cloudy
Partly cloudy
 Wind from NNW
Wind: NNW 16 mph , 26 km/h, Gust: 28 mph , 44 km/h
Temperature: 57°F , 14°C
Dew Point: 37°F , 3°C
Humidity: 48%
Barometer: 30.06 inHg , 1017.9 hPa
Clouds: Partly cloudy
Visibility: 10 miles , 16 km
Cloud details: Partly cloudy 4500 ft
Partly cloudy 6000 ft
2019/04/19 15:53 KMLC 191553Z AUTO 34014G24KT 10SM SCT045 SCT060 14/03 A3006 RMK AO2 SLP177 T01390028
 
KMKO - Muskogee, Oklahoma
Updated: Fri, Apr-Fri-2019 10:53am
Partly cloudy
Partly cloudy
 Wind from NNW
Wind: NNW 17 mph , 28 km/h, Gust: 26 mph , 43 km/h
Temperature: 55°F , 13°C
Dew Point: 43°F , 6°C
Humidity: 63%
Barometer: 30.06 inHg , 1017.9 hPa
Clouds: Partly cloudy
Visibility: 10 miles , 16 km
Cloud details: Partly cloudy 4200 ft
Partly cloudy 5000 ft
2019/04/19 15:53 KMKO 191553Z AUTO 34015G23KT 10SM SCT042 SCT050 13/06 A3006 RMK AO2 PK WND 01027/1504 SLP175 T01330061
KRVS - Tulsa, Oklahoma
Updated: Fri, Apr-Fri-2019 10:53am
Few Clouds
Few Clouds
 Wind from N
Wind: N 17 mph , 28 km/h, Gust: 33 mph , 54 km/h
Temperature: 59°F , 15°C
Dew Point: 37°F , 3°C
Humidity: 45%
Barometer: 30.07 inHg , 1018.3 hPa
Clouds: Few Clouds
Visibility: 10 miles , 16 km
Cloud details: Few Clouds 4500 ft
2019/04/19 15:53 KRVS 191553Z 01015G29KT 10SM FEW045 15/03 A3007 RMK AO2 PK WND 02029/1549 SLP193 T01500033
KGZL - Stigler, Oklahoma
Updated: Fri, Apr-Fri-2019 11:15am
Mostly cloudy
Mostly cloudy
 Wind from N
Wind: N 15 mph , 24 km/h, Gust: 29 mph , 46 km/h
Temperature: 57°F , 14°C
Dew Point: 30°F , -1°C
Humidity: 36%
Barometer: 30.04 inHg , 1017.3 hPa
Clouds: Mostly cloudy
Visibility: 10 miles , 16 km
Cloud details: Partly cloudy 4800 ft
Mostly cloudy 5500 ft
2019/04/19 16:15 KGZL 191615Z AUTO 36013G25KT 10SM SCT048 BKN055 14/M01 A3004 RMK AO2
 
KADH - Ada, Oklahoma
Updated: Fri, Apr-Fri-2019 11:15am
Partly cloudy
Partly cloudy
 Wind from N
Wind: N 10 mph , 17 km/h, Gust: 16 mph , 26 km/h
Temperature: 55°F , 13°C
Dew Point: 37°F , 3°C
Humidity: 51%
Barometer: 30.10 inHg , 1019.3 hPa
Clouds: Partly cloudy
Visibility: 10 miles , 16 km
Cloud details: Partly cloudy 4100 ft
Partly cloudy 4700 ft
2019/04/19 16:15 KADH 191615Z AUTO 35009G14KT 10SM SCT041 SCT047 13/03 A3010 RMK AO2
KAQR - Atoka, Oklahoma
Updated: Fri, Apr-Fri-2019 11:15am
Mostly cloudy
Mostly cloudy
 Wind from N
Wind: N 10 mph , 17 km/h, Gust: 24 mph , 39 km/h
Temperature: 59°F , 15°C
Dew Point: 37°F , 3°C
Humidity: 45%
Barometer: 30.08 inHg , 1018.6 hPa
Clouds: Mostly cloudy
Visibility: 10 miles , 16 km
Cloud details: Partly cloudy 4800 ft
Mostly cloudy 6000 ft
2019/04/19 16:15 KAQR 191615Z AUTO 35009G21KT 10SM SCT048 BKN060 15/03 A3008 RMK AO2
KJSV - Sallisaw, Oklahoma
Updated: Fri, Mar-Fri-2019 8:35pm
NOT Current
Mist, Overcast
Mist, Overcast
 Wind from calm
Wind: Calm
Temperature: 39°F , 4°C
Dew Point: 36°F , 2°C
Humidity: 87%
Barometer: 30.15 inHg , 1021 hPa
Summary: Mist
Clouds: Overcast
Visibility: 5 miles , 8 km
Cloud details: Mostly cloudy 1100 ft
Overcast 2600 ft
2019/03/02 02:35 KJSV 020235Z AUTO 00000KT 5SM BR BKN011 OVC026 04/02 A3015 RMK AO2
 
KTQH - Tahlequah, Oklahoma
Updated: Fri, Apr-Fri-2019 11:15am
Partly cloudy
Partly cloudy
 Wind from NNW
Wind: NNW 21 mph , 33 km/h, Gust: 25 mph , 41 km/h
Temperature: 55°F , 13°C
Dew Point: 39°F , 4°C
Humidity: 55%
Barometer: 30.03 inHg , 1016.9 hPa
Clouds: Partly cloudy
Visibility: 10 miles , 16 km
Cloud details: Partly cloudy 4500 ft
Partly cloudy 5500 ft
2019/04/19 16:15 KTQH 191615Z AUTO 33018G22KT 310V010 10SM SCT045 SCT055 13/04 A3003 RMK AO2
KGCM - Claremore, Oklahoma
Updated: Fri, Apr-Fri-2019 11:15am
Mostly cloudy
Mostly cloudy
 Wind from N
Wind: N 16 mph , 26 km/h, Gust: 23 mph , 37 km/h
Temperature: 55°F , 13°C
Dew Point: 37°F , 3°C
Humidity: 51%
Barometer: 30.07 inHg , 1018.3 hPa
Clouds: Mostly cloudy
Visibility: 10 miles , 16 km
Cloud details: Partly cloudy 3900 ft
Mostly cloudy 4700 ft
Mostly cloudy 5500 ft
2019/04/19 16:15 KGCM 191615Z AUTO 36014G20KT 10SM SCT039 BKN047 BKN055 13/03 A3007 RMK AO2
KRKR - Poteau, Oklahoma
Updated: Fri, Apr-Fri-2019 11:15am
Mostly cloudy
Mostly cloudy
 Wind from NNW
Wind: NNW 17 mph , 28 km/h, Gust: 26 mph , 43 km/h
Temperature: 55°F , 13°C
Dew Point: 36°F , 2°C
Humidity: 47%
Barometer: 30.01 inHg , 1016.3 hPa
Clouds: Mostly cloudy
Visibility: 10 miles , 16 km
Cloud details: Mostly cloudy 5000 ft
2019/04/19 16:15 KRKR 191615Z AUTO 33015G23KT 10SM BKN050 13/02 A3001 RMK AO2
 
KGMJ - Grove, Oklahoma
Updated: Fri, Apr-Fri-2019 11:15am
Partly cloudy
Partly cloudy
 Wind from N
Wind: N 15 mph , 24 km/h, Gust: 24 mph , 39 km/h
Temperature: 54°F , 12°C
Dew Point: 37°F , 3°C
Humidity: 54%
Barometer: 30.03 inHg , 1016.9 hPa
Clouds: Partly cloudy
Visibility: 10 miles , 16 km
Cloud details: Partly cloudy 3800 ft
Partly cloudy 4800 ft
Partly cloudy 5000 ft
2019/04/19 16:15 KGMJ 191615Z AUTO 36013G21KT 340V040 10SM SCT038 SCT048 SCT050 12/03 A3003 RMK AO2
K4O4 - Idabel, Oklahoma
Updated: Fri, Apr-Fri-2019 11:15am
Clear
Clear
 Wind from N
Wind: N 16 mph , 26 km/h, Gust: 25 mph , 41 km/h
Temperature: 55°F , 13°C
Dew Point: 37°F , 3°C
Humidity: 51%
Barometer: 29.99 inHg , 1015.6 hPa
Clouds: Clear
Visibility: 10 miles , 16 km
2019/04/19 16:15 K4O4 191615Z AUTO 36014G22KT 10SM CLR 13/03 A2999 RMK AO2
KHHW - Hugo, Oklahoma
Updated: Tue, Mar-Tue-2019 11:15am
NOT Current
Overcast
Overcast
 Wind from ESE
Wind: ESE 10 mph , 17 km/h
Temperature: 59°F , 15°C
Dew Point: 52°F , 11°C
Humidity: 77%
Barometer: 30.17 inHg , 1021.7 hPa
Clouds: Overcast
Visibility: 10 miles , 16 km
Cloud details: Overcast 1600 ft
2019/03/12 16:15 KHHW 121615Z AUTO 11009KT 10SM OVC016 15/11 A3017 RMK AO2 LTG DSNT SW T01460110
 
KDUA - Durant, Oklahoma
Updated: Fri, Apr-Fri-2019 11:15am
Mostly cloudy
Mostly cloudy
 Wind from N
Wind: N 15 mph , 24 km/h, Gust: 23 mph , 37 km/h
Temperature: 57°F , 14°C
Dew Point: 39°F , 4°C
Humidity: 51%
Barometer: 30.10 inHg , 1019.3 hPa
Clouds: Mostly cloudy
Visibility: 10 miles , 16 km
Cloud details: Partly cloudy 3900 ft
Mostly cloudy 4700 ft
Mostly cloudy 6000 ft
2019/04/19 16:15 KDUA 191615Z AUTO 35013G20KT 280V360 10SM SCT039 BKN047 BKN060 14/04 A3010 RMK AO2
KSTJ - St. Joseph, Missouri
Updated: Fri, Apr-Fri-2019 10:53am
Clear
Clear
 Wind from NNE
Wind: NNE 15 mph , 24 km/h, Gust: 25 mph , 41 km/h
Temperature: 55°F , 13°C
Dew Point: 36°F , 2°C
Humidity: 47%
Barometer: 30.08 inHg , 1018.6 hPa
Clouds: Clear
Visibility: 10 miles , 16 km
2019/04/19 15:53 KSTJ 191553Z 03013G22KT 10SM CLR 13/02 A3008 RMK AO2 SLP185 T01330022
KMCI - Kansas City/Intl, Missouri
Updated: Fri, Apr-Fri-2019 10:53am
Few Clouds
Few Clouds
 Wind from N
Wind: N 21 mph , 33 km/h, Gust: 29 mph , 46 km/h
Temperature: 55°F , 13°C
Dew Point: 36°F , 2°C
Humidity: 47%
Barometer: 30.05 inHg , 1017.6 hPa
Clouds: Few Clouds
Visibility: 10 miles , 16 km
Cloud details: Few Clouds 3000 ft
2019/04/19 15:53 KMCI 191553Z 01018G25KT 10SM FEW030 13/02 A3005 RMK AO2 SLP175 T01280017
 
KMKC - Kansas City/Dntn, Missouri
Updated: Fri, Apr-Fri-2019 10:54am
Clear
Clear
 Wind from N
Wind: N 17 mph , 28 km/h
Temperature: 55°F , 13°C
Dew Point: 36°F , 2°C
Humidity: 47%
Barometer: 30.04 inHg , 1017.3 hPa
Clouds: Clear
Visibility: 10 miles , 16 km
2019/04/19 15:54 KMKC 191554Z 01015KT 10SM CLR 13/02 A3004 RMK AO2 SLP173 T01280017
KCDJ - Chillicothe, Missouri
Updated: Fri, Apr-Fri-2019 10:52am

 Wind from N
Wind: N 21 mph , 33 km/h, Gust: 33 mph , 54 km/h
Temperature: 55°F , 13°C
Dew Point: 28°F , -2°C
Humidity: 36%
Barometer: 30.03 inHg , 1016.9 hPa
2019/04/19 15:52 KCDJ 191552Z AUTO 01018G29KT 13/M02 A3003 RMK AO1 PK WND 02029/1550 SLP172 T01281022
KIRK - Kirksville, Missouri
Updated: Fri, Apr-Fri-2019 10:55am
Clear
Clear
 Wind from N
Wind: N 20 mph , 31 km/h, Gust: 30 mph , 48 km/h
Temperature: 52°F , 11°C
Dew Point: 36°F , 2°C
Humidity: 54%
Barometer: 29.99 inHg , 1015.6 hPa
Clouds: Clear
Visibility: 10 miles , 16 km
2019/04/19 15:55 KIRK 191555Z AUTO 36017G26KT 10SM CLR 11/02 A2999 RMK AO2 PK WND 01029/1523 SLP158 T01110022
 
KSZL - Whiteman Afb, Missouri
Updated: Fri, Apr-Fri-2019 10:56am
Few Clouds
Few Clouds
 Wind from N
Wind: N 18 mph , 30 km/h, Gust: 29 mph , 46 km/h
Temperature: 54°F , 12°C
Dew Point: 37°F , 3°C
Humidity: 54%
Barometer: 29.95 inHg , 1014.2 hPa
Clouds: Few Clouds
Visibility: 10 miles , 16 km
Cloud details: Few Clouds 3800 ft
2019/04/19 15:56 KSZL 191556Z 01016G25KT 10SM FEW038 12/03 A2995 RMK AO2A PK WND 36028/32 SLP146 T01200027
KDMO - Sedalia, Missouri
Updated: Fri, Apr-Fri-2019 10:53am
Few Clouds
Few Clouds
 Wind from N
Wind: N 20 mph , 31 km/h, Gust: 31 mph , 50 km/h
Temperature: 52°F , 11°C
Dew Point: 41°F , 5°C
Humidity: 67%
Barometer: 29.98 inHg , 1015.2 hPa
Clouds: Few Clouds
Visibility: 10 miles , 16 km
Cloud details: Few Clouds 3500 ft
2019/04/19 15:53 KDMO 191553Z AUTO 35017G27KT 10SM FEW035 11/05 A2998 RMK AO2 PK WND 35027/1544 SLP154 T01060050
KGLY - Clinton, Missouri
Updated: Fri, Apr-Fri-2019 10:55am
Clear
Clear
 Wind from NNE
Wind: NNE 18 mph , 30 km/h, Gust: 25 mph , 41 km/h
Temperature: 55°F , 13°C
Dew Point: 39°F , 4°C
Humidity: 55%
Barometer: 30.00 inHg , 1015.9 hPa
Clouds: Clear
Visibility: 10 miles , 16 km
2019/04/19 15:55 KGLY 191555Z AUTO 02016G22KT 10SM CLR 13/04 A3000 RMK AO2
 
KCOU - Columbia, Missouri
Updated: Fri, Apr-Fri-2019 10:54am
Mostly cloudy
Mostly cloudy
 Wind from N
Wind: N 20 mph , 31 km/h, Gust: 30 mph , 48 km/h
Temperature: 52°F , 11°C
Dew Point: 37°F , 3°C
Humidity: 58%
Barometer: 29.93 inHg , 1013.5 hPa
Clouds: Mostly cloudy
Visibility: 10 miles , 16 km
Cloud details: Mostly cloudy 3100 ft
Mostly cloudy 3900 ft
2019/04/19 15:54 KCOU 191554Z 36017G26KT 10SM BKN031 BKN039 11/03 A2993 RMK AO2 PK WND 34029/1539 SLP136 T01060033
KJEF - Jefferson City, Missouri
Updated: Fri, Apr-Fri-2019 10:53am
Mostly cloudy
Mostly cloudy
 Wind from N
Wind: N 18 mph , 30 km/h, Gust: 30 mph , 48 km/h
Temperature: 50°F , 10°C
Wind Chill: 44°F , 7°C
Dew Point: 36°F , 2°C
Humidity: 58%
Barometer: 29.94 inHg , 1013.9 hPa
Clouds: Mostly cloudy
Visibility: 10 miles , 16 km
Cloud details: Mostly cloudy 3500 ft
2019/04/19 15:53 KJEF 191553Z 35016G26KT 10SM BKN035 10/02 A2994 RMK AO2 PK WND 34026/1553 SLP130 T01000017
KVIH - Vichy/Rolla, Missouri
Updated: Fri, Apr-Fri-2019 10:53am
Overcast
Overcast
 Wind from NNW
Wind: NNW 16 mph , 26 km/h, Gust: 24 mph , 39 km/h
Temperature: 45°F , 7°C
Wind Chill: 38°F , 3°C
Dew Point: 36°F , 2°C
Humidity: 71%
Barometer: 29.90 inHg , 1012.5 hPa
Clouds: Overcast
Visibility: 10 miles , 16 km
Cloud details: Mostly cloudy 2600 ft
Overcast 3500 ft
2019/04/19 15:53 KVIH 191553Z AUTO 34014G21KT 10SM BKN026 OVC035 07/02 A2990 RMK AO2 SLP126 T00720017
 
KTBN - Fort Leonard Wood, Missouri
Updated: Fri, Apr-Fri-2019 10:56am
Overcast
Overcast
 Wind from NNW
Wind: NNW 15 mph , 24 km/h, Gust: 23 mph , 37 km/h
Temperature: 46°F , 8°C
Wind Chill: 40°F , 4°C
Dew Point: 34°F , 1°C
Humidity: 62%
Barometer: 29.89 inHg , 1012.2 hPa
Clouds: Overcast
Visibility: 10 miles , 16 km
Cloud details: Overcast 3200 ft
2019/04/19 15:56 KTBN 191556Z AUTO 34013G20KT 10SM OVC032 08/01 A2989 RMK AO2 PK WND 01030/15 SLP127 T00760014 $
KJLN - Joplin, Missouri
Updated: Fri, Apr-Fri-2019 10:53am
Mostly cloudy
Mostly cloudy
 Wind from NNW
Wind: NNW 18 mph , 30 km/h, Gust: 31 mph , 50 km/h
Temperature: 54°F , 12°C
Dew Point: 41°F , 5°C
Humidity: 63%
Barometer: 30.02 inHg , 1016.6 hPa
Clouds: Mostly cloudy
Visibility: 10 miles , 16 km
Cloud details: Mostly cloudy 3600 ft
2019/04/19 15:53 KJLN 191553Z COR 34016G27KT 10SM BKN036 12/05 A3002 RMK AO2 PK WND 01027/1526 SLP165 T01170050
KHFJ - Monett, Missouri
Updated: Fri, Apr-Fri-2019 11:15am
Mostly cloudy
Mostly cloudy
 Wind from NNW
Wind: NNW 21 mph , 33 km/h, Gust: 26 mph , 43 km/h
Temperature: 50°F , 10°C
Wind Chill: 43°F , 6°C
Dew Point: 37°F , 3°C
Humidity: 62%
Barometer: 29.98 inHg , 1015.2 hPa
Clouds: Mostly cloudy
Visibility: 10 miles , 16 km
Cloud details: Partly cloudy 3000 ft
Mostly cloudy 3600 ft
Mostly cloudy 4500 ft
2019/04/19 16:15 KHFJ 191615Z AUTO 34018G23KT 10SM SCT030 BKN036 BKN045 10/03 A2998 RMK AO2
 
KSGF - Springfield, Missouri
Updated: Fri, Apr-Fri-2019 10:52am
Mostly cloudy
Mostly cloudy
 Wind from N
Wind: N 23 mph , 37 km/h, Gust: 36 mph , 57 km/h
Temperature: 52°F , 11°C
Dew Point: 37°F , 3°C
Humidity: 58%
Barometer: 29.94 inHg , 1013.9 hPa
Clouds: Mostly cloudy
Visibility: 10 miles , 16 km
Cloud details: Partly cloudy 3400 ft
Mostly cloudy 4500 ft
2019/04/19 15:52 KSGF 191552Z 35020G31KT 10SM SCT034 BKN045 11/03 A2994 RMK AO2 PK WND 34040/1501 SLP138 T01110028
KBBG - Branson, Missouri
Updated: Fri, Apr-Fri-2019 10:45am
Mostly cloudy
Mostly cloudy
 Wind from NNW
Wind: NNW 28 mph , 44 km/h, Gust: 35 mph , 56 km/h
Temperature: 48°F , 9°C
Wind Chill: 40°F , 4°C
Dew Point: 36°F , 2°C
Humidity: 62%
Barometer: 29.93 inHg , 1013.5 hPa
Clouds: Mostly cloudy
Visibility: 10 miles , 16 km
Cloud details: Partly cloudy 3600 ft
Mostly cloudy 4600 ft
2019/04/19 15:45 KBBG 191545Z 33024G30KT 10SM SCT036 BKN046 09/02 A2993
KUNO - West Plains, Missouri
Updated: Fri, Apr-Fri-2019 10:53am
Overcast
Overcast
 Wind from N
Wind: N 17 mph , 28 km/h, Gust: 35 mph , 56 km/h
Temperature: 46°F , 8°C
Wind Chill: 39°F , 4°C
Dew Point: 36°F , 2°C
Humidity: 66%
Barometer: 29.86 inHg , 1011.2 hPa
Clouds: Overcast
Visibility: 10 miles , 16 km
Cloud details: Partly cloudy 3400 ft
Overcast 4200 ft
2019/04/19 15:53 KUNO 191553Z AUTO 35015G30KT 10SM SCT034 OVC042 08/02 A2986 RMK AO2 PK WND 36030/1520 SLP112 T00830022
 
KFAM - Farmington, Missouri
Updated: Fri, Apr-Fri-2019 10:56am
Overcast
Overcast
 Wind from NNW
Wind: NNW 14 mph , 22 km/h, Gust: 21 mph , 33 km/h
Temperature: 45°F , 7°C
Wind Chill: 39°F , 4°C
Dew Point: 39°F , 4°C
Humidity: 81%
Barometer: 29.81 inHg , 1009.5 hPa
Clouds: Overcast
Visibility: 10 miles , 16 km
Cloud details: Overcast 2200 ft
2019/04/19 15:56 KFAM 191556Z AUTO 34012G18KT 10SM OVC022 07/04 A2981 RMK AO2 SLP096 T00670039
KCGI - Cape Girardeau, Missouri
Updated: Fri, Apr-Fri-2019 10:53am
Overcast
Overcast
 Wind from N
Wind: N 17 mph , 28 km/h, Gust: 30 mph , 48 km/h
Temperature: 46°F , 8°C
Wind Chill: 39°F , 4°C
Dew Point: 39°F , 4°C
Humidity: 76%
Barometer: 29.75 inHg , 1007.5 hPa
Clouds: Overcast
Visibility: 10 miles , 16 km
Cloud details: Mostly cloudy 1900 ft
Overcast 2500 ft
2019/04/19 15:53 KCGI 191553Z 36015G26KT 10SM BKN019 OVC025 08/04 A2975 RMK AO2 PK WND 35034/1510 SLP074 T00830044
KSTL - St. Louis, Missouri
Updated: Fri, Apr-Fri-2019 10:51am
Overcast
Overcast
 Wind from N
Wind: N 20 mph , 31 km/h, Gust: 31 mph , 50 km/h
Temperature: 46°F , 8°C
Wind Chill: 38°F , 3°C
Dew Point: 37°F , 3°C
Humidity: 71%
Barometer: 29.84 inHg , 1010.5 hPa
Clouds: Overcast
Visibility: 10 miles , 16 km
Cloud details: Mostly cloudy 2800 ft
Overcast 3800 ft
2019/04/19 15:51 KSTL 191551Z 35017G27KT 10SM BKN028 OVC038 08/03 A2984 RMK AO2 PK WND 34027/1505 SLP107 T00830028
 
KPOF - Popular Bluff, Missouri
Updated: Fri, Apr-Fri-2019 10:53am
Light rain, Overcast
Light rain, Overcast
 Wind from N
Wind: N 17 mph , 28 km/h, Gust: 36 mph , 57 km/h
Temperature: 48°F , 9°C
Wind Chill: 42°F , 6°C
Dew Point: 39°F , 4°C
Humidity: 71%
Barometer: 29.77 inHg , 1008.1 hPa
Summary: Light rain
Clouds: Overcast
Visibility: 10 miles , 16 km
Cloud details: Mostly cloudy 3100 ft
Overcast 4200 ft
2019/04/19 15:53 KPOF 191553Z AUTO 36015G31KT 10SM -RA BKN031 OVC042 09/04 A2977 RMK AO2 PK WND 36031/1544 RAB41 SLP084 P0000 T00890044
KSET - St. Charles, Missouri
Updated: Fri, Apr-Fri-2019 10:54am
Overcast
Overcast
 Wind from N
Wind: N 17 mph , 28 km/h, Gust: 29 mph , 46 km/h
Temperature: 48°F , 9°C
Wind Chill: 42°F , 6°C
Dew Point: 37°F , 3°C
Humidity: 66%
Barometer: 29.86 inHg , 1011.2 hPa
Clouds: Overcast
Visibility: 10 miles , 16 km
Cloud details: Mostly cloudy 3500 ft
Overcast 4500 ft
2019/04/19 15:54 KSET 191554Z AUTO 35015G25KT 10SM BKN035 OVC045 09/03 A2986 RMK AO2 PK WND 34028/1514 SLP110 T00890033
KGLD - Goodland, Kansas
Updated: Fri, Apr-Fri-2019 10:53am
Clear
Clear
 Wind from NW
Wind: NW 12 mph , 19 km/h
Temperature: 57°F , 14°C
Dew Point: 27°F , -3°C
Humidity: 31%
Barometer: 30.17 inHg , 1021.7 hPa
Clouds: Clear
Visibility: 10 miles , 16 km
2019/04/19 15:53 KGLD 191553Z AUTO 31010KT 10SM CLR 14/M03 A3017 RMK AO2 SLP212 T01391028
 
KHLC - Hill City, Kansas
Updated: Fri, Apr-Fri-2019 10:53am
Clear
Clear
 Wind from N
Wind: N 8 mph , 13 km/h, Gust: 17 mph , 28 km/h
Temperature: 55°F , 13°C
Dew Point: 34°F , 1°C
Humidity: 44%
Barometer: 30.18 inHg , 1022 hPa
Clouds: Clear
Visibility: 10 miles , 16 km
2019/04/19 15:53 KHLC 191553Z AUTO 01007G15KT 10SM CLR 13/01 A3018 RMK AO2 SLP221 T01280011
KHYS - Hays Muni, Kansas
Updated: Fri, Apr-Fri-2019 10:56am
Clear
Clear
 Wind from N
Wind: N 10 mph , 17 km/h, Gust: 18 mph , 30 km/h
Temperature: 55°F , 13°C
Dew Point: 36°F , 2°C
Humidity: 47%
Barometer: 30.17 inHg , 1021.7 hPa
Clouds: Clear
Visibility: 10 miles , 16 km
2019/04/19 15:56 KHYS 191556Z AUTO 35009G16KT 10SM CLR 13/02 A3017 RMK AO2 SLP218 T01330022
KRSL - Russell, Kansas
Updated: Fri, Apr-Fri-2019 10:53am
Clear
Clear
 Wind from N
Wind: N 13 mph , 20 km/h
Temperature: 55°F , 13°C
Dew Point: 36°F , 2°C
Humidity: 47%
Barometer: 30.15 inHg , 1021 hPa
Clouds: Clear
Visibility: 10 miles , 16 km
2019/04/19 15:53 KRSL 191553Z AUTO 35011KT 10SM CLR 13/02 A3015 RMK AO2 SLP212 T01280017
 
KGBD - Great Bend, Kansas
Updated: Fri, Apr-Fri-2019 10:56am
Clear
Clear
 Wind from NW
Wind: NW 17 mph , 28 km/h
Temperature: 55°F , 13°C
Dew Point: 37°F , 3°C
Humidity: 51%
Barometer: 30.16 inHg , 1021.3 hPa
Clouds: Clear
Visibility: 10 miles , 16 km
2019/04/19 15:56 KGBD 191556Z AUTO 32015KT 10SM CLR 13/03 A3016 RMK AO2 SLP215 T01280033
KDDC - Dodge City, Kansas
Updated: Fri, Apr-Fri-2019 10:52am
Clear
Clear
 Wind from N
Wind: N 14 mph , 22 km/h, Gust: 26 mph , 43 km/h
Temperature: 55°F , 13°C
Dew Point: 34°F , 1°C
Humidity: 44%
Barometer: 30.19 inHg , 1022.4 hPa
Clouds: Clear
Visibility: 10 miles , 16 km
2019/04/19 15:52 KDDC 191552Z AUTO 35012G23KT 10SM CLR 13/01 A3019 RMK AO2 SLP215 T01330006
KPTT - Pratt Indust, Kansas
Updated: Fri, Apr-Fri-2019 10:55am
Clear
Clear
 Wind from NNW
Wind: NNW 15 mph , 24 km/h, Gust: 23 mph , 37 km/h
Temperature: 55°F , 13°C
Dew Point: 36°F , 2°C
Humidity: 47%
Barometer: 30.17 inHg , 1021.7 hPa
Clouds: Clear
Visibility: 10 miles , 16 km
2019/04/19 15:55 KPTT 191555Z AUTO 33013G20KT 10SM CLR 13/02 A3017 RMK AO2 T01330019
 
KSLN - Salina, Kansas
Updated: Fri, Apr-Fri-2019 10:53am
Clear
Clear
 Wind from N
Wind: N 13 mph , 20 km/h, Gust: 20 mph , 31 km/h
Temperature: 54°F , 12°C
Dew Point: 39°F , 4°C
Humidity: 58%
Barometer: 30.16 inHg , 1021.3 hPa
Clouds: Clear
Visibility: 10 miles , 16 km
2019/04/19 15:53 KSLN 191553Z 35011G17KT 10SM CLR 12/04 A3016 RMK AO2 SLP212 T01220039
KHUT - Hutchinson, Kansas
Updated: Fri, Apr-Fri-2019 10:52am
Clear
Clear
 Wind from N
Wind: N 16 mph , 26 km/h, Gust: 31 mph , 50 km/h
Temperature: 55°F , 13°C
Dew Point: 37°F , 3°C
Humidity: 51%
Barometer: 30.14 inHg , 1020.7 hPa
Clouds: Clear
Visibility: 10 miles , 16 km
2019/04/19 15:52 KHUT 191552Z 36014G27KT 10SM CLR 13/03 A3014 RMK AO2 PK WND 33028/1524 SLP199 T01280028
KGCK - Garden City, Kansas
Updated: Fri, Apr-Fri-2019 10:54am
Clear
Clear
 Wind from NW
Wind: NW 8 mph , 13 km/h
Temperature: 54°F , 12°C
Dew Point: 28°F , -2°C
Humidity: 38%
Barometer: 30.19 inHg , 1022.4 hPa
Clouds: Clear
Visibility: 10 miles , 16 km
2019/04/19 15:54 KGCK 191554Z 32007KT 10SM CLR 12/M02 A3019 RMK AO2 SLP221 T01221017
 
KP28 - Medicine Lodge, Kansas
Updated: Fri, Apr-Fri-2019 10:56am

 Wind from NNW
Wind: NNW 18 mph , 30 km/h, Gust: 29 mph , 46 km/h
Temperature: 57°F , 14°C
Dew Point: 37°F , 3°C
Humidity: 48%
Barometer: 30.15 inHg , 1021 hPa
2019/04/19 15:56 KP28 191556Z AUTO 33016G25KT 14/03 A3015 RMK AO1 SLP211 T01390028
KICT - Wichita, Kansas
Updated: Fri, Apr-Fri-2019 10:53am
Few Clouds
Few Clouds
 Wind from N
Wind: N 21 mph , 33 km/h, Gust: 32 mph , 52 km/h
Temperature: 55°F , 13°C
Dew Point: 37°F , 3°C
Humidity: 51%
Barometer: 30.13 inHg , 1020.3 hPa
Clouds: Few Clouds
Visibility: 10 miles , 16 km
Cloud details: Few Clouds 4000 ft
2019/04/19 15:53 KICT 191553Z 36018G28KT 10SM FEW040 13/03 A3013 RMK AO2 PK WND 34028/1547 SLP199 T01330028
KRSL - Russell, Kansas
Updated: Fri, Apr-Fri-2019 10:53am
Clear
Clear
 Wind from N
Wind: N 13 mph , 20 km/h
Temperature: 55°F , 13°C
Dew Point: 36°F , 2°C
Humidity: 47%
Barometer: 30.15 inHg , 1021 hPa
Clouds: Clear
Visibility: 10 miles , 16 km
2019/04/19 15:53 KRSL 191553Z AUTO 35011KT 10SM CLR 13/02 A3015 RMK AO2 SLP212 T01280017
 
KMHK - Manhattan, Kansas
Updated: Fri, Apr-Fri-2019 10:52am
Few Clouds
Few Clouds
 Wind from NNE
Wind: NNE 10 mph , 17 km/h, Gust: 18 mph , 30 km/h
Temperature: 57°F , 14°C
Dew Point: 36°F , 2°C
Humidity: 44%
Barometer: 30.12 inHg , 1020 hPa
Clouds: Few Clouds
Visibility: 10 miles , 16 km
Cloud details: Few Clouds 4200 ft
2019/04/19 15:52 KMHK 191552Z 02009G16KT 10SM FEW042 14/02 A3012 RMK AO2 SLP198 T01390022
KEMP - Emporia, Kansas
Updated: Fri, Apr-Fri-2019 10:53am
Few Clouds
Few Clouds
 Wind from N
Wind: N 16 mph , 26 km/h, Gust: 31 mph , 50 km/h
Temperature: 55°F , 13°C
Dew Point: 36°F , 2°C
Humidity: 47%
Barometer: 30.09 inHg , 1019 hPa
Clouds: Few Clouds
Visibility: 10 miles , 16 km
Cloud details: Few Clouds 4600 ft
2019/04/19 15:53 KEMP 191553Z AUTO 36014G27KT 10SM FEW046 13/02 A3009 RMK AO2 PK WND 35027/1551 SLP188 T01330017
KTOP - Topeka, Kansas
Updated: Fri, Apr-Fri-2019 10:53am
Clear
Clear
 Wind from N
Wind: N 15 mph , 24 km/h, Gust: 24 mph , 39 km/h
Temperature: 57°F , 14°C
Dew Point: 37°F , 3°C
Humidity: 48%
Barometer: 30.08 inHg , 1018.6 hPa
Clouds: Clear
Visibility: 10 miles , 16 km
2019/04/19 15:53 KTOP 191553Z 35013G21KT 10SM CLR 14/03 A3008 RMK AO2 SLP186 T01390028
 
KCNU - Chanute, Kansas
Updated: Fri, Apr-Fri-2019 10:52am
Few Clouds
Few Clouds
 Wind from N
Wind: N 16 mph , 26 km/h, Gust: 29 mph , 46 km/h
Temperature: 57°F , 14°C
Dew Point: 39°F , 4°C
Humidity: 51%
Barometer: 30.06 inHg , 1017.9 hPa
Clouds: Few Clouds
Visibility: 10 miles , 16 km
Cloud details: Few Clouds 4000 ft
2019/04/19 15:52 KCNU 191552Z AUTO 36014G25KT 10SM FEW040 14/04 A3006 RMK AO2 PK WND 36027/1540 SLP176 T01440039
KLWC - Lawrence, Kansas
Updated: Fri, Apr-Fri-2019 10:52am
Few Clouds
Few Clouds
 Wind from N
Wind: N 14 mph , 22 km/h, Gust: 26 mph , 43 km/h
Temperature: 57°F , 14°C
Dew Point: 36°F , 2°C
Humidity: 44%
Barometer: 30.07 inHg , 1018.3 hPa
Clouds: Few Clouds
Visibility: 10 miles , 16 km
Cloud details: Few Clouds 4600 ft
2019/04/19 15:52 KLWC 191552Z AUTO 36012G23KT 10SM FEW046 14/02 A3007 RMK AO2 SLP181 T01390017
KPPF - Parsons, Kansas
Updated: Fri, Apr-Fri-2019 10:52am
Few Clouds
Few Clouds
 Wind from N
Wind: N 14 mph , 22 km/h, Gust: 28 mph , 44 km/h
Temperature: 59°F , 15°C
Dew Point: 39°F , 4°C
Humidity: 48%
Barometer: 30.07 inHg , 1018.3 hPa
Clouds: Few Clouds
Visibility: 10 miles , 16 km
Cloud details: Few Clouds 3800 ft
2019/04/19 15:52 KPPF 191552Z AUTO 36012G24KT 10SM FEW038 15/04 A3007 RMK AO2 PK WND 36027/1520 SLP179 T01500044
 
KIDP - Independence, Kansas
Updated: Fri, Apr-Fri-2019 10:55am
Mostly cloudy
Mostly cloudy
 Wind from N
Wind: N 22 mph , 35 km/h
Temperature: 55°F , 13°C
Dew Point: 41°F , 5°C
Humidity: 59%
Barometer: 30.07 inHg , 1018.3 hPa
Clouds: Mostly cloudy
Visibility: 10 miles , 16 km
Cloud details: Partly cloudy 3700 ft
Mostly cloudy 4300 ft
2019/04/19 15:55 KIDP 191555Z AUTO 35019KT 10SM SCT037 BKN043 13/05 A3007 RMK AO2 T01320049
KOJC - Olathe, Kansas
Updated: Fri, Apr-Fri-2019 10:53am
Few Clouds
Few Clouds
 Wind from N
Wind: N 17 mph , 28 km/h, Gust: 24 mph , 39 km/h
Temperature: 54°F , 12°C
Dew Point: 36°F , 2°C
Humidity: 51%
Barometer: 30.04 inHg , 1017.3 hPa
Clouds: Few Clouds
Visibility: 10 miles , 16 km
Cloud details: Few Clouds 4200 ft
2019/04/19 15:53 KOJC 191553Z 36015G21KT 10SM FEW042 12/02 A3004 RMK AO2 PK WND 02027/1526 SLP171 T01220022
KCFV - Coffeyville, Kansas
Updated: Fri, Apr-Fri-2019 10:52am
Few Clouds
Few Clouds
 Wind from N
Wind: N 22 mph , 35 km/h, Gust: 33 mph , 54 km/h
Temperature: 55°F , 13°C
Dew Point: 39°F , 4°C
Humidity: 55%
Barometer: 30.06 inHg , 1017.9 hPa
Clouds: Few Clouds
Visibility: 10 miles , 16 km
Cloud details: Few Clouds 4000 ft
Few Clouds 4900 ft
2019/04/19 15:52 KCFV 191552Z AUTO 35019G29KT 10SM FEW040 FEW049 13/04 A3006 RMK AO2 PK WND 33029/1549 SLP177 T01330039
 
KPTS - Pittsburg, Kansas
Updated: Fri, Apr-Fri-2019 11:15am
Partly cloudy
Partly cloudy
 Wind from N
Wind: N 10 mph , 17 km/h, Gust: 18 mph , 30 km/h
Temperature: 55°F , 13°C
Dew Point: 39°F , 4°C
Humidity: 55%
Barometer: 30.02 inHg , 1016.6 hPa
Clouds: Partly cloudy
Visibility: 10 miles , 16 km
Cloud details: Partly cloudy 4800 ft
2019/04/19 16:15 KPTS 191615Z AUTO 01009G16KT 330V030 10SM SCT048 13/04 A3002 RMK AO2 T01290039
KLGA - New York City, New York
Updated: Fri, Apr-Fri-2019 10:51am
Overcast
Overcast
 Wind from S
Wind: S 10 mph , 17 km/h
Temperature: 70°F , 21°C
Dew Point: 57°F , 14°C
Humidity: 64%
Barometer: 29.81 inHg , 1009.5 hPa
Clouds: Overcast
Visibility: 10 miles , 16 km
Cloud details: Mostly cloudy 3800 ft
Overcast 5000 ft
2019/04/19 15:51 KLGA 191551Z 18009KT 10SM BKN038 OVC050 21/14 A2981 RMK AO2 RAB1457E16 SLP095 P0000 T02060139
KCLT - Charlotte, North Carolina
Updated: Fri, Apr-Fri-2019 10:52am
Overcast
Overcast
 Wind from SSE
Wind: SSE 24 mph , 39 km/h, Gust: 31 mph , 50 km/h
Temperature: 75°F , 24°C
Dew Point: 64°F , 18°C
Humidity: 69%
Barometer: 29.61 inHg , 1002.7 hPa
Clouds: Overcast
Visibility: 10 miles , 16 km
Cloud details: Partly cloudy 2400 ft
Mostly cloudy 3900 ft
Mostly cloudy 8000 ft
Overcast 25000 ft
2019/04/19 15:52 KCLT 191552Z 16021G27KT 10SM SCT024 BKN039 BKN080 OVC250 24/18 A2961 RMK AO2 PK WND 17030/1514 RAE01 SLP020 P0000 T02440178
 
KATL - Atlanta, Georgia
Updated: Fri, Apr-Fri-2019 10:52am
Light rain, Overcast
Light rain, Overcast
 Wind from WSW
Wind: WSW 12 mph , 19 km/h
Temperature: 66°F , 19°C
Dew Point: 63°F , 17°C
Humidity: 88%
Barometer: 29.49 inHg , 998.6 hPa
Summary: Light rain
Clouds: Overcast
Visibility: 10 miles , 16 km
Cloud details: Few Clouds 1000 ft
Partly cloudy 3000 ft
Overcast 5000 ft
2019/04/19 15:52 KATL 191552Z 24010KT 10SM -RA FEW010 SCT030 OVC050 19/17 A2949 RMK AO2 RAE28B52 SLP978 P0004 T01890167
KORL - Orlando, Florida
Updated: Fri, Apr-Fri-2019 10:53am
Mostly cloudy
Mostly cloudy
 Wind from S
Wind: S 18 mph , 30 km/h, Gust: 25 mph , 41 km/h
Temperature: 84°F , 29°C
Heat Index: 88°F , 31°C
Dew Point: 70°F , 21°C
Humidity: 62%
Barometer: 29.81 inHg , 1009.5 hPa
Clouds: Mostly cloudy
Visibility: 10 miles , 16 km
Cloud details: Mostly cloudy 3900 ft
Mostly cloudy 5000 ft
2019/04/19 15:53 KORL 191553Z 19016G22KT 10SM BKN039 BKN050 29/21 A2981 RMK AO2 PK WND 19026/1540 SLP096 T02940211
KMSP - Minneapolis, Minnesota
Updated: Fri, Apr-Fri-2019 10:53am
Clear
Clear
 Wind from calm
Wind: Calm
Temperature: 57°F , 14°C
Dew Point: 30°F , -1°C
Humidity: 36%
Barometer: 30.05 inHg , 1017.6 hPa
Clouds: Clear
Visibility: 10 miles , 16 km
2019/04/19 15:53 KMSP 191553Z 00000KT 10SM CLR 14/M01 A3005 RMK AO2 SLP179 T01391006
 
KORD - Chicago, Illinois
Updated: Fri, Apr-Fri-2019 10:51am
Mostly cloudy
Mostly cloudy
 Wind from NNE
Wind: NNE 29 mph , 46 km/h, Gust: 38 mph , 61 km/h
Temperature: 46°F , 8°C
Wind Chill: 37°F , 3°C
Dew Point: 36°F , 2°C
Humidity: 66%
Barometer: 29.86 inHg , 1011.2 hPa
Clouds: Mostly cloudy
Visibility: 10 miles , 16 km
Cloud details: Partly cloudy 2100 ft
Mostly cloudy 2700 ft
Mostly cloudy 18000 ft
2019/04/19 15:51 KORD 191551Z 02025G33KT 10SM SCT021 BKN027 BKN180 08/02 A2986 RMK AO2 PK WND 02037/1533 SLP113 T00780017
KDFW - Dallas/Ft Worth, Texas
Updated: Fri, Apr-Fri-2019 10:53am
Partly cloudy
Partly cloudy
 Wind from NNW
Wind: NNW 23 mph , 37 km/h, Gust: 29 mph , 46 km/h
Temperature: 63°F , 17°C
Dew Point: 43°F , 6°C
Humidity: 49%
Barometer: 30.09 inHg , 1019 hPa
Clouds: Partly cloudy
Visibility: 10 miles , 16 km
Cloud details: Few Clouds 4000 ft
Partly cloudy 7000 ft
2019/04/19 15:53 KDFW 191553Z 34020G25KT 10SM FEW040 SCT070 17/06 A3009 RMK AO2 PK WND 33029/1456 SLP186 T01670056
KHOU - Houston, Texas
Updated: Fri, Apr-Fri-2019 10:53am
Clear
Clear
 Wind from NNW
Wind: NNW 20 mph , 31 km/h, Gust: 26 mph , 43 km/h
Temperature: 68°F , 20°C
Dew Point: 45°F , 7°C
Humidity: 43%
Barometer: 30.04 inHg , 1017.3 hPa
Clouds: Clear
Visibility: 10 miles , 16 km
2019/04/19 15:53 KHOU 191553Z 33017G23KT 10SM CLR 20/07 A3004 RMK AO2 SLP176 T02000067
 
KDEN - Denver, Colorado
Updated: Fri, Apr-Fri-2019 10:53am
Few Clouds
Few Clouds
 Wind from calm
Wind: Calm
Temperature: 59°F , 15°C
Dew Point: 28°F , -2°C
Humidity: 31%
Barometer: 30.18 inHg , 1022 hPa
Clouds: Few Clouds
Visibility: 10 miles , 16 km
Cloud details: Few Clouds 22000 ft
2019/04/19 15:53 KDEN 191553Z 00000KT 10SM FEW220 15/M02 A3018 RMK AO2 SLP182 T01501022
KSFO - San Francisco, California
Updated: Fri, Apr-Fri-2019 10:56am
Mostly cloudy
Mostly cloudy
 Wind from WNW
Wind: WNW 8 mph , 13 km/h
Temperature: 59°F , 15°C
Dew Point: 50°F , 10°C
Humidity: 72%
Barometer: 29.96 inHg , 1014.6 hPa
Clouds: Mostly cloudy
Visibility: 10 miles , 16 km
Cloud details: Few Clouds 900 ft
Mostly cloudy 18000 ft
2019/04/19 15:56 KSFO 191556Z 29007KT 10SM FEW009 BKN180 15/10 A2996 RMK AO2 SLP145 T01500100
KLAX - Los Angeles, California
Updated: Fri, Apr-Fri-2019 10:53am
Haze, Mostly cloudy
Haze, Mostly cloudy
 Wind from W
Wind: W 8 mph , 13 km/h
Temperature: 61°F , 16°C
Dew Point: 54°F , 12°C
Humidity: 77%
Barometer: 29.98 inHg , 1015.2 hPa
Summary: Haze
Clouds: Mostly cloudy
Visibility: 3 miles , 5 km
Cloud details: Partly cloudy 700 ft
Mostly cloudy 14000 ft
Mostly cloudy 18000 ft
2019/04/19 15:53 KLAX 191553Z 26007KT 3SM HZ SCT007 BKN140 BKN180 16/12 A2998 RMK AO2 SLP151 T01560122